sensor_id;sensor_type;location;lat;lon;timestamp;P1;durP1;ratioP1;P2;durP2;ratioP2
58842;SDS011;44614;54.356;10.100;2024-02-14T00:02:09;10.35;;;5.22;;
58842;SDS011;44614;54.356;10.100;2024-02-14T00:04:34;12.10;;;6.25;;
58842;SDS011;44614;54.356;10.100;2024-02-14T00:07:00;14.32;;;5.97;;
58842;SDS011;44614;54.356;10.100;2024-02-14T00:09:25;12.93;;;5.90;;
58842;SDS011;44614;54.356;10.100;2024-02-14T00:11:50;14.63;;;5.20;;
58842;SDS011;44614;54.356;10.100;2024-02-14T00:14:16;11.77;;;6.18;;
58842;SDS011;44614;54.356;10.100;2024-02-14T00:16:44;15.38;;;6.78;;
58842;SDS011;44614;54.356;10.100;2024-02-14T00:19:09;14.85;;;6.25;;
58842;SDS011;44614;54.356;10.100;2024-02-14T00:21:35;11.77;;;5.70;;
58842;SDS011;44614;54.356;10.100;2024-02-14T00:24:01;10.90;;;5.55;;
58842;SDS011;44614;54.356;10.100;2024-02-14T00:26:26;14.70;;;6.10;;
58842;SDS011;44614;54.356;10.100;2024-02-14T00:28:52;12.90;;;6.40;;
58842;SDS011;44614;54.356;10.100;2024-02-14T00:31:17;13.15;;;6.45;;
58842;SDS011;44614;54.356;10.100;2024-02-14T00:33:43;11.55;;;7.30;;
58842;SDS011;44614;54.356;10.100;2024-02-14T00:36:11;9.02;;;6.20;;
58842;SDS011;44614;54.356;10.100;2024-02-14T00:38:36;17.67;;;6.35;;
58842;SDS011;44614;54.356;10.100;2024-02-14T00:41:02;13.38;;;6.45;;
58842;SDS011;44614;54.356;10.100;2024-02-14T00:43:27;15.65;;;6.22;;
58842;SDS011;44614;54.356;10.100;2024-02-14T00:45:53;16.33;;;6.97;;
58842;SDS011;44614;54.356;10.100;2024-02-14T00:48:18;13.63;;;6.45;;
58842;SDS011;44614;54.356;10.100;2024-02-14T00:50:44;14.45;;;6.22;;
58842;SDS011;44614;54.356;10.100;2024-02-14T00:53:10;11.07;;;6.65;;
58842;SDS011;44614;54.356;10.100;2024-02-14T00:55:35;12.90;;;6.63;;
58842;SDS011;44614;54.356;10.100;2024-02-14T00:58:01;16.45;;;6.75;;
58842;SDS011;44614;54.356;10.100;2024-02-14T01:00:27;12.10;;;6.90;;
58842;SDS011;44614;54.356;10.100;2024-02-14T01:02:52;18.20;;;6.85;;
58842;SDS011;44614;54.356;10.100;2024-02-14T01:05:18;13.98;;;6.90;;
58842;SDS011;44614;54.356;10.100;2024-02-14T01:07:43;19.02;;;6.30;;
58842;SDS011;44614;54.356;10.100;2024-02-14T01:10:11;13.13;;;6.68;;
58842;SDS011;44614;54.356;10.100;2024-02-14T01:12:36;11.85;;;5.93;;
58842;SDS011;44614;54.356;10.100;2024-02-14T01:15:02;17.95;;;5.70;;
58842;SDS011;44614;54.356;10.100;2024-02-14T01:17:28;10.70;;;6.53;;
58842;SDS011;44614;54.356;10.100;2024-02-14T01:19:53;13.30;;;6.97;;
58842;SDS011;44614;54.356;10.100;2024-02-14T01:22:18;16.83;;;7.03;;
58842;SDS011;44614;54.356;10.100;2024-02-14T01:24:44;10.77;;;6.00;;
58842;SDS011;44614;54.356;10.100;2024-02-14T01:27:10;10.45;;;5.65;;
58842;SDS011;44614;54.356;10.100;2024-02-14T01:29:35;14.18;;;7.03;;
58842;SDS011;44614;54.356;10.100;2024-02-14T01:32:01;9.48;;;5.38;;
58842;SDS011;44614;54.356;10.100;2024-02-14T01:34:27;11.80;;;6.72;;
58842;SDS011;44614;54.356;10.100;2024-02-14T01:36:53;12.18;;;6.82;;
58842;SDS011;44614;54.356;10.100;2024-02-14T01:39:19;10.95;;;7.00;;
58842;SDS011;44614;54.356;10.100;2024-02-14T01:41:47;10.43;;;5.50;;
58842;SDS011;44614;54.356;10.100;2024-02-14T01:44:16;13.15;;;5.80;;
58842;SDS011;44614;54.356;10.100;2024-02-14T01:46:43;12.27;;;6.22;;
58842;SDS011;44614;54.356;10.100;2024-02-14T01:49:09;26.60;;;7.05;;
58842;SDS011;44614;54.356;10.100;2024-02-14T01:51:39;13.63;;;6.30;;
58842;SDS011;44614;54.356;10.100;2024-02-14T01:54:07;12.27;;;6.18;;
58842;SDS011;44614;54.356;10.100;2024-02-14T01:56:33;12.38;;;5.32;;
58842;SDS011;44614;54.356;10.100;2024-02-14T01:58:59;8.82;;;6.13;;
58842;SDS011;44614;54.356;10.100;2024-02-14T02:01:26;10.00;;;5.57;;
58842;SDS011;44614;54.356;10.100;2024-02-14T02:03:52;12.50;;;6.13;;
58842;SDS011;44614;54.356;10.100;2024-02-14T02:06:17;13.27;;;6.22;;
58842;SDS011;44614;54.356;10.100;2024-02-14T02:08:43;14.23;;;7.03;;
58842;SDS011;44614;54.356;10.100;2024-02-14T02:11:09;14.48;;;5.75;;
58842;SDS011;44614;54.356;10.100;2024-02-14T02:13:35;11.68;;;5.53;;
58842;SDS011;44614;54.356;10.100;2024-02-14T02:16:02;12.68;;;5.80;;
58842;SDS011;44614;54.356;10.100;2024-02-14T02:18:30;11.90;;;5.90;;
58842;SDS011;44614;54.356;10.100;2024-02-14T02:20:56;17.07;;;5.63;;
58842;SDS011;44614;54.356;10.100;2024-02-14T02:23:22;11.73;;;5.82;;
58842;SDS011;44614;54.356;10.100;2024-02-14T02:25:48;8.48;;;4.80;;
58842;SDS011;44614;54.356;10.100;2024-02-14T02:28:13;8.75;;;4.78;;
58842;SDS011;44614;54.356;10.100;2024-02-14T02:30:39;9.13;;;5.43;;
58842;SDS011;44614;54.356;10.100;2024-02-14T02:33:05;11.98;;;4.80;;
58842;SDS011;44614;54.356;10.100;2024-02-14T02:37:58;10.65;;;5.78;;
58842;SDS011;44614;54.356;10.100;2024-02-14T02:40:24;17.77;;;5.75;;
58842;SDS011;44614;54.356;10.100;2024-02-14T02:42:50;9.23;;;4.00;;
58842;SDS011;44614;54.356;10.100;2024-02-14T02:45:16;6.50;;;3.95;;
58842;SDS011;44614;54.356;10.100;2024-02-14T02:47:42;12.70;;;4.75;;
58842;SDS011;44614;54.356;10.100;2024-02-14T02:50:07;10.50;;;4.15;;
58842;SDS011;44614;54.356;10.100;2024-02-14T02:52:33;10.05;;;4.47;;
58842;SDS011;44614;54.356;10.100;2024-02-14T02:54:59;6.30;;;3.40;;
58842;SDS011;44614;54.356;10.100;2024-02-14T02:59:52;7.82;;;3.58;;
58842;SDS011;44614;54.356;10.100;2024-02-14T03:04:44;7.80;;;4.03;;
58842;SDS011;44614;54.356;10.100;2024-02-14T03:07:10;6.68;;;3.70;;
58842;SDS011;44614;54.356;10.100;2024-02-14T03:09:36;6.53;;;3.67;;
58842;SDS011;44614;54.356;10.100;2024-02-14T03:12:04;8.63;;;4.10;;
58842;SDS011;44614;54.356;10.100;2024-02-14T03:14:30;6.45;;;3.25;;
58842;SDS011;44614;54.356;10.100;2024-02-14T03:17:02;5.57;;;3.70;;
58842;SDS011;44614;54.356;10.100;2024-02-14T03:19:28;6.38;;;4.00;;
58842;SDS011;44614;54.356;10.100;2024-02-14T03:21:55;7.60;;;4.20;;
58842;SDS011;44614;54.356;10.100;2024-02-14T03:24:21;9.35;;;4.43;;
58842;SDS011;44614;54.356;10.100;2024-02-14T03:26:47;7.55;;;3.42;;
58842;SDS011;44614;54.356;10.100;2024-02-14T03:29:12;6.15;;;3.42;;
58842;SDS011;44614;54.356;10.100;2024-02-14T03:31:38;12.73;;;4.95;;
58842;SDS011;44614;54.356;10.100;2024-02-14T03:34:03;8.48;;;3.25;;
58842;SDS011;44614;54.356;10.100;2024-02-14T03:36:30;6.32;;;3.53;;
58842;SDS011;44614;54.356;10.100;2024-02-14T03:38:57;6.47;;;3.92;;
58842;SDS011;44614;54.356;10.100;2024-02-14T03:41:24;5.30;;;3.60;;
58842;SDS011;44614;54.356;10.100;2024-02-14T03:43:49;15.70;;;3.38;;
58842;SDS011;44614;54.356;10.100;2024-02-14T03:46:15;6.47;;;3.30;;
58842;SDS011;44614;54.356;10.100;2024-02-14T03:48:43;8.82;;;4.22;;
58842;SDS011;44614;54.356;10.100;2024-02-14T03:51:09;9.13;;;4.00;;
58842;SDS011;44614;54.356;10.100;2024-02-14T03:53:34;11.02;;;4.60;;
58842;SDS011;44614;54.356;10.100;2024-02-14T03:55:59;8.15;;;4.40;;
58842;SDS011;44614;54.356;10.100;2024-02-14T03:58:25;9.73;;;4.45;;
58842;SDS011;44614;54.356;10.100;2024-02-14T04:00:51;7.43;;;3.60;;
58842;SDS011;44614;54.356;10.100;2024-02-14T04:03:17;8.43;;;4.25;;
58842;SDS011;44614;54.356;10.100;2024-02-14T04:05:43;9.73;;;4.75;;
58842;SDS011;44614;54.356;10.100;2024-02-14T04:08:08;8.63;;;4.75;;
58842;SDS011;44614;54.356;10.100;2024-02-14T04:10:37;7.88;;;4.20;;
58842;SDS011;44614;54.356;10.100;2024-02-14T04:13:04;8.75;;;5.28;;
58842;SDS011;44614;54.356;10.100;2024-02-14T04:15:30;11.23;;;5.20;;
58842;SDS011;44614;54.356;10.100;2024-02-14T04:17:56;10.40;;;4.55;;
58842;SDS011;44614;54.356;10.100;2024-02-14T04:20:22;17.92;;;6.32;;
58842;SDS011;44614;54.356;10.100;2024-02-14T04:22:47;14.10;;;6.75;;
58842;SDS011;44614;54.356;10.100;2024-02-14T04:25:13;10.32;;;5.90;;
58842;SDS011;44614;54.356;10.100;2024-02-14T04:27:38;12.45;;;5.22;;
58842;SDS011;44614;54.356;10.100;2024-02-14T04:30:04;12.40;;;5.35;;
58842;SDS011;44614;54.356;10.100;2024-02-14T04:32:30;9.43;;;5.50;;
58842;SDS011;44614;54.356;10.100;2024-02-14T04:34:56;11.70;;;5.72;;
58842;SDS011;44614;54.356;10.100;2024-02-14T04:37:23;7.82;;;5.85;;
58842;SDS011;44614;54.356;10.100;2024-02-14T04:39:48;14.23;;;6.38;;
58842;SDS011;44614;54.356;10.100;2024-02-14T04:42:13;13.68;;;5.57;;
58842;SDS011;44614;54.356;10.100;2024-02-14T04:44:39;13.68;;;5.00;;
58842;SDS011;44614;54.356;10.100;2024-02-14T04:47:04;10.13;;;5.10;;
58842;SDS011;44614;54.356;10.100;2024-02-14T04:49:30;11.73;;;6.03;;
58842;SDS011;44614;54.356;10.100;2024-02-14T04:51:56;13.38;;;7.72;;
58842;SDS011;44614;54.356;10.100;2024-02-14T04:54:22;15.43;;;6.63;;
58842;SDS011;44614;54.356;10.100;2024-02-14T04:56:48;15.00;;;6.28;;
58842;SDS011;44614;54.356;10.100;2024-02-14T04:59:13;11.50;;;7.28;;
58842;SDS011;44614;54.356;10.100;2024-02-14T05:01:39;10.18;;;5.68;;
58842;SDS011;44614;54.356;10.100;2024-02-14T05:04:05;12.17;;;6.33;;
58842;SDS011;44614;54.356;10.100;2024-02-14T05:06:32;11.32;;;5.43;;
58842;SDS011;44614;54.356;10.100;2024-02-14T05:08:57;17.40;;;5.68;;
58842;SDS011;44614;54.356;10.100;2024-02-14T05:11:23;13.70;;;5.85;;
58842;SDS011;44614;54.356;10.100;2024-02-14T05:13:48;11.85;;;6.22;;
58842;SDS011;44614;54.356;10.100;2024-02-14T05:16:17;12.10;;;6.60;;
58842;SDS011;44614;54.356;10.100;2024-02-14T05:18:46;13.93;;;6.07;;
58842;SDS011;44614;54.356;10.100;2024-02-14T05:21:11;11.88;;;5.97;;
58842;SDS011;44614;54.356;10.100;2024-02-14T05:23:37;11.48;;;6.25;;
58842;SDS011;44614;54.356;10.100;2024-02-14T05:26:03;11.25;;;5.45;;
58842;SDS011;44614;54.356;10.100;2024-02-14T05:28:29;14.00;;;6.30;;
58842;SDS011;44614;54.356;10.100;2024-02-14T05:30:55;12.25;;;6.30;;
58842;SDS011;44614;54.356;10.100;2024-02-14T05:33:21;10.40;;;5.57;;
58842;SDS011;44614;54.356;10.100;2024-02-14T05:35:50;10.88;;;5.57;;
58842;SDS011;44614;54.356;10.100;2024-02-14T05:38:17;14.15;;;6.32;;
58842;SDS011;44614;54.356;10.100;2024-02-14T05:40:45;18.90;;;6.22;;
58842;SDS011;44614;54.356;10.100;2024-02-14T05:43:11;11.45;;;5.68;;
58842;SDS011;44614;54.356;10.100;2024-02-14T05:45:36;12.10;;;6.57;;
58842;SDS011;44614;54.356;10.100;2024-02-14T05:48:02;12.82;;;6.70;;
58842;SDS011;44614;54.356;10.100;2024-02-14T05:50:28;11.60;;;5.67;;
58842;SDS011;44614;54.356;10.100;2024-02-14T05:52:54;11.77;;;5.50;;
58842;SDS011;44614;54.356;10.100;2024-02-14T05:55:19;16.27;;;6.15;;
58842;SDS011;44614;54.356;10.100;2024-02-14T05:57:45;13.57;;;5.85;;
58842;SDS011;44614;54.356;10.100;2024-02-14T06:00:10;10.45;;;4.82;;
58842;SDS011;44614;54.356;10.100;2024-02-14T06:02:38;9.13;;;4.47;;
58842;SDS011;44614;54.356;10.100;2024-02-14T06:05:07;11.05;;;5.30;;
58842;SDS011;44614;54.356;10.100;2024-02-14T06:07:36;14.70;;;5.93;;
58842;SDS011;44614;54.356;10.100;2024-02-14T06:10:02;12.32;;;6.15;;
58842;SDS011;44614;54.356;10.100;2024-02-14T06:12:27;12.48;;;5.60;;
58842;SDS011;44614;54.356;10.100;2024-02-14T06:14:54;10.85;;;4.35;;
58842;SDS011;44614;54.356;10.100;2024-02-14T06:17:20;13.27;;;6.15;;
58842;SDS011;44614;54.356;10.100;2024-02-14T06:19:45;9.73;;;5.72;;
58842;SDS011;44614;54.356;10.100;2024-02-14T06:22:11;13.23;;;4.43;;
58842;SDS011;44614;54.356;10.100;2024-02-14T06:24:36;8.02;;;4.75;;
58842;SDS011;44614;54.356;10.100;2024-02-14T06:27:02;6.38;;;4.57;;
58842;SDS011;44614;54.356;10.100;2024-02-14T06:29:27;13.05;;;6.00;;
58842;SDS011;44614;54.356;10.100;2024-02-14T06:31:53;10.40;;;4.75;;
58842;SDS011;44614;54.356;10.100;2024-02-14T06:34:19;12.20;;;4.35;;
58842;SDS011;44614;54.356;10.100;2024-02-14T06:36:46;11.40;;;5.97;;
58842;SDS011;44614;54.356;10.100;2024-02-14T06:41:37;7.30;;;4.25;;
58842;SDS011;44614;54.356;10.100;2024-02-14T06:44:03;7.25;;;4.30;;
58842;SDS011;44614;54.356;10.100;2024-02-14T06:46:29;9.13;;;4.50;;
58842;SDS011;44614;54.356;10.100;2024-02-14T06:48:55;12.75;;;5.03;;
58842;SDS011;44614;54.356;10.100;2024-02-14T06:51:22;10.80;;;5.25;;
58842;SDS011;44614;54.356;10.100;2024-02-14T06:53:49;8.70;;;4.47;;
58842;SDS011;44614;54.356;10.100;2024-02-14T06:56:14;9.77;;;5.10;;
58842;SDS011;44614;54.356;10.100;2024-02-14T06:58:40;7.95;;;4.53;;
58842;SDS011;44614;54.356;10.100;2024-02-14T07:01:05;8.52;;;4.50;;
58842;SDS011;44614;54.356;10.100;2024-02-14T07:03:31;10.13;;;5.07;;
58842;SDS011;44614;54.356;10.100;2024-02-14T07:05:56;10.77;;;4.25;;
58842;SDS011;44614;54.356;10.100;2024-02-14T07:08:22;14.82;;;5.40;;
58842;SDS011;44614;54.356;10.100;2024-02-14T07:10:48;8.47;;;4.37;;
58842;SDS011;44614;54.356;10.100;2024-02-14T07:13:14;11.77;;;6.00;;
58842;SDS011;44614;54.356;10.100;2024-02-14T07:15:39;12.90;;;6.22;;
58842;SDS011;44614;54.356;10.100;2024-02-14T07:18:05;12.43;;;5.20;;
58842;SDS011;44614;54.356;10.100;2024-02-14T07:20:30;7.15;;;4.70;;
58842;SDS011;44614;54.356;10.100;2024-02-14T07:22:56;11.05;;;5.15;;
58842;SDS011;44614;54.356;10.100;2024-02-14T07:25:22;10.85;;;4.20;;
58842;SDS011;44614;54.356;10.100;2024-02-14T07:27:48;6.25;;;3.85;;
58842;SDS011;44614;54.356;10.100;2024-02-14T07:32:43;8.43;;;4.05;;
58842;SDS011;44614;54.356;10.100;2024-02-14T07:35:09;9.35;;;4.82;;
58842;SDS011;44614;54.356;10.100;2024-02-14T07:37:35;14.80;;;4.35;;
58842;SDS011;44614;54.356;10.100;2024-02-14T07:40:01;8.00;;;3.80;;
58842;SDS011;44614;54.356;10.100;2024-02-14T07:42:26;10.48;;;5.03;;
58842;SDS011;44614;54.356;10.100;2024-02-14T07:44:51;8.98;;;5.32;;
58842;SDS011;44614;54.356;10.100;2024-02-14T07:47:17;9.57;;;4.32;;
58842;SDS011;44614;54.356;10.100;2024-02-14T07:49:43;7.30;;;4.15;;
58842;SDS011;44614;54.356;10.100;2024-02-14T07:52:09;8.38;;;4.43;;
58842;SDS011;44614;54.356;10.100;2024-02-14T07:54:34;11.70;;;4.72;;
58842;SDS011;44614;54.356;10.100;2024-02-14T07:56:59;9.57;;;5.43;;
58842;SDS011;44614;54.356;10.100;2024-02-14T07:59:25;7.97;;;4.93;;
58842;SDS011;44614;54.356;10.100;2024-02-14T08:01:50;11.48;;;6.15;;
58842;SDS011;44614;54.356;10.100;2024-02-14T08:04:16;8.23;;;4.45;;
58842;SDS011;44614;54.356;10.100;2024-02-14T08:06:41;8.55;;;4.20;;
58842;SDS011;44614;54.356;10.100;2024-02-14T08:09:07;10.27;;;5.45;;
58842;SDS011;44614;54.356;10.100;2024-02-14T08:11:35;15.00;;;5.55;;
58842;SDS011;44614;54.356;10.100;2024-02-14T08:14:01;11.73;;;5.10;;
58842;SDS011;44614;54.356;10.100;2024-02-14T08:16:27;8.25;;;4.13;;
58842;SDS011;44614;54.356;10.100;2024-02-14T08:18:52;10.30;;;4.85;;
58842;SDS011;44614;54.356;10.100;2024-02-14T08:21:24;15.38;;;4.15;;
58842;SDS011;44614;54.356;10.100;2024-02-14T08:26:16;13.30;;;5.22;;
58842;SDS011;44614;54.356;10.100;2024-02-14T08:28:42;7.22;;;4.25;;
58842;SDS011;44614;54.356;10.100;2024-02-14T08:31:10;10.82;;;4.32;;
58842;SDS011;44614;54.356;10.100;2024-02-14T08:33:37;9.82;;;4.85;;
58842;SDS011;44614;54.356;10.100;2024-02-14T08:36:03;8.88;;;4.57;;
58842;SDS011;44614;54.356;10.100;2024-02-14T08:38:29;17.55;;;5.68;;
58842;SDS011;44614;54.356;10.100;2024-02-14T08:40:54;12.63;;;5.20;;
58842;SDS011;44614;54.356;10.100;2024-02-14T08:43:20;11.18;;;4.63;;
58842;SDS011;44614;54.356;10.100;2024-02-14T08:45:45;12.13;;;5.53;;
58842;SDS011;44614;54.356;10.100;2024-02-14T08:48:11;11.63;;;5.07;;
58842;SDS011;44614;54.356;10.100;2024-02-14T08:50:36;9.32;;;5.35;;
58842;SDS011;44614;54.356;10.100;2024-02-14T08:53:02;11.15;;;4.40;;
58842;SDS011;44614;54.356;10.100;2024-02-14T08:55:27;10.10;;;5.22;;
58842;SDS011;44614;54.356;10.100;2024-02-14T08:57:53;7.65;;;4.53;;
58842;SDS011;44614;54.356;10.100;2024-02-14T09:00:18;6.22;;;4.15;;
58842;SDS011;44614;54.356;10.100;2024-02-14T09:02:45;10.53;;;4.83;;
58842;SDS011;44614;54.356;10.100;2024-02-14T09:05:12;11.52;;;5.18;;
58842;SDS011;44614;54.356;10.100;2024-02-14T09:07:38;16.67;;;5.70;;
58842;SDS011;44614;54.356;10.100;2024-02-14T09:10:03;8.35;;;3.83;;
58842;SDS011;44614;54.356;10.100;2024-02-14T09:12:30;11.68;;;4.80;;
58842;SDS011;44614;54.356;10.100;2024-02-14T09:14:57;9.70;;;5.43;;
58842;SDS011;44614;54.356;10.100;2024-02-14T09:17:23;9.43;;;4.70;;
58842;SDS011;44614;54.356;10.100;2024-02-14T09:19:48;12.50;;;5.13;;
58842;SDS011;44614;54.356;10.100;2024-02-14T09:22:13;9.35;;;5.13;;
58842;SDS011;44614;54.356;10.100;2024-02-14T09:24:46;11.43;;;4.82;;
58842;SDS011;44614;54.356;10.100;2024-02-14T09:27:11;9.57;;;4.70;;
58842;SDS011;44614;54.356;10.100;2024-02-14T09:29:36;9.52;;;4.40;;
58842;SDS011;44614;54.356;10.100;2024-02-14T09:32:03;10.40;;;4.35;;
58842;SDS011;44614;54.356;10.100;2024-02-14T09:34:29;10.13;;;5.35;;
58842;SDS011;44614;54.356;10.100;2024-02-14T09:36:54;10.30;;;5.50;;
58842;SDS011;44614;54.356;10.100;2024-02-14T09:39:21;8.32;;;4.45;;
58842;SDS011;44614;54.356;10.100;2024-02-14T09:41:51;11.95;;;4.95;;
58842;SDS011;44614;54.356;10.100;2024-02-14T09:44:20;11.07;;;4.88;;
58842;SDS011;44614;54.356;10.100;2024-02-14T09:46:47;6.53;;;3.28;;
58842;SDS011;44614;54.356;10.100;2024-02-14T09:51:40;6.22;;;3.58;;
58842;SDS011;44614;54.356;10.100;2024-02-14T09:54:07;7.55;;;4.15;;
58842;SDS011;44614;54.356;10.100;2024-02-14T09:56:33;7.65;;;4.03;;
58842;SDS011;44614;54.356;10.100;2024-02-14T09:58:58;6.55;;;3.88;;
58842;SDS011;44614;54.356;10.100;2024-02-14T10:01:27;9.25;;;4.32;;
58842;SDS011;44614;54.356;10.100;2024-02-14T10:03:53;6.88;;;4.32;;
58842;SDS011;44614;54.356;10.100;2024-02-14T10:06:20;7.20;;;3.13;;
58842;SDS011;44614;54.356;10.100;2024-02-14T10:08:48;11.43;;;4.57;;
58842;SDS011;44614;54.356;10.100;2024-02-14T10:11:15;7.97;;;4.28;;
58842;SDS011;44614;54.356;10.100;2024-02-14T10:13:41;8.00;;;3.90;;
58842;SDS011;44614;54.356;10.100;2024-02-14T10:16:10;10.13;;;4.55;;
58842;SDS011;44614;54.356;10.100;2024-02-14T10:21:03;9.68;;;4.80;;
58842;SDS011;44614;54.356;10.100;2024-02-14T10:23:29;10.15;;;5.40;;
58842;SDS011;44614;54.356;10.100;2024-02-14T10:25:56;13.25;;;5.45;;
58842;SDS011;44614;54.356;10.100;2024-02-14T10:28:22;9.88;;;5.93;;
58842;SDS011;44614;54.356;10.100;2024-02-14T10:30:48;9.98;;;4.40;;
58842;SDS011;44614;54.356;10.100;2024-02-14T10:33:17;13.30;;;5.85;;
58842;SDS011;44614;54.356;10.100;2024-02-14T10:35:44;14.70;;;6.32;;
58842;SDS011;44614;54.356;10.100;2024-02-14T10:38:11;11.77;;;5.30;;
58842;SDS011;44614;54.356;10.100;2024-02-14T10:40:36;15.10;;;6.33;;
58842;SDS011;44614;54.356;10.100;2024-02-14T10:43:07;10.10;;;5.05;;
58842;SDS011;44614;54.356;10.100;2024-02-14T10:45:37;12.93;;;5.85;;
58842;SDS011;44614;54.356;10.100;2024-02-14T10:48:06;13.68;;;6.05;;
58842;SDS011;44614;54.356;10.100;2024-02-14T10:50:41;10.88;;;4.93;;
58842;SDS011;44614;54.356;10.100;2024-02-14T10:53:10;18.45;;;6.82;;
58842;SDS011;44614;54.356;10.100;2024-02-14T10:55:38;13.00;;;5.40;;
58842;SDS011;44614;54.356;10.100;2024-02-14T10:58:07;14.68;;;6.15;;
58842;SDS011;44614;54.356;10.100;2024-02-14T11:00:35;15.10;;;5.80;;
58842;SDS011;44614;54.356;10.100;2024-02-14T11:03:01;14.43;;;6.28;;
58842;SDS011;44614;54.356;10.100;2024-02-14T11:05:27;13.88;;;6.05;;
58842;SDS011;44614;54.356;10.100;2024-02-14T11:07:52;11.95;;;5.38;;
58842;SDS011;44614;54.356;10.100;2024-02-14T11:10:18;14.02;;;6.57;;
58842;SDS011;44614;54.356;10.100;2024-02-14T11:12:46;11.60;;;5.18;;
58842;SDS011;44614;54.356;10.100;2024-02-14T11:15:23;12.55;;;6.60;;
58842;SDS011;44614;54.356;10.100;2024-02-14T11:18:03;11.90;;;5.35;;
58842;SDS011;44614;54.356;10.100;2024-02-14T11:20:36;12.73;;;5.95;;
58842;SDS011;44614;54.356;10.100;2024-02-14T11:25:34;13.50;;;5.95;;
58842;SDS011;44614;54.356;10.100;2024-02-14T11:28:12;13.55;;;6.80;;
58842;SDS011;44614;54.356;10.100;2024-02-14T11:30:39;12.95;;;6.47;;
58842;SDS011;44614;54.356;10.100;2024-02-14T11:35:40;12.57;;;5.97;;
58842;SDS011;44614;54.356;10.100;2024-02-14T11:38:07;11.60;;;5.57;;
58842;SDS011;44614;54.356;10.100;2024-02-14T11:40:33;17.60;;;6.57;;
58842;SDS011;44614;54.356;10.100;2024-02-14T11:42:58;16.25;;;6.80;;
58842;SDS011;44614;54.356;10.100;2024-02-14T11:45:24;14.00;;;5.20;;
58842;SDS011;44614;54.356;10.100;2024-02-14T11:47:50;10.25;;;5.72;;
58842;SDS011;44614;54.356;10.100;2024-02-14T11:50:17;12.18;;;5.40;;
58842;SDS011;44614;54.356;10.100;2024-02-14T11:52:43;13.48;;;6.93;;
58842;SDS011;44614;54.356;10.100;2024-02-14T11:55:08;12.27;;;6.13;;
58842;SDS011;44614;54.356;10.100;2024-02-14T11:57:35;13.02;;;5.90;;
58842;SDS011;44614;54.356;10.100;2024-02-14T12:00:01;9.68;;;5.28;;
58842;SDS011;44614;54.356;10.100;2024-02-14T12:02:27;13.13;;;5.53;;
58842;SDS011;44614;54.356;10.100;2024-02-14T12:04:53;17.23;;;6.30;;
58842;SDS011;44614;54.356;10.100;2024-02-14T12:09:47;11.00;;;5.57;;
58842;SDS011;44614;54.356;10.100;2024-02-14T12:12:14;10.60;;;5.03;;
58842;SDS011;44614;54.356;10.100;2024-02-14T12:17:08;12.43;;;5.07;;
58842;SDS011;44614;54.356;10.100;2024-02-14T12:19:35;9.00;;;4.68;;
58842;SDS011;44614;54.356;10.100;2024-02-14T12:22:09;9.77;;;4.82;;
58842;SDS011;44614;54.356;10.100;2024-02-14T12:24:42;10.40;;;5.43;;
58842;SDS011;44614;54.356;10.100;2024-02-14T12:27:09;9.15;;;4.50;;
58842;SDS011;44614;54.356;10.100;2024-02-14T12:29:34;8.18;;;4.43;;
58842;SDS011;44614;54.356;10.100;2024-02-14T12:32:04;10.83;;;5.10;;
58842;SDS011;44614;54.356;10.100;2024-02-14T12:34:31;12.20;;;5.35;;
58842;SDS011;44614;54.356;10.100;2024-02-14T12:36:57;9.55;;;4.63;;
58842;SDS011;44614;54.356;10.100;2024-02-14T12:39:23;8.38;;;5.57;;
58842;SDS011;44614;54.356;10.100;2024-02-14T12:41:51;8.27;;;4.40;;
58842;SDS011;44614;54.356;10.100;2024-02-14T12:44:17;11.70;;;6.05;;
58842;SDS011;44614;54.356;10.100;2024-02-14T12:46:43;9.60;;;4.57;;
58842;SDS011;44614;54.356;10.100;2024-02-14T12:49:08;8.40;;;4.27;;
58842;SDS011;44614;54.356;10.100;2024-02-14T12:51:34;5.63;;;3.22;;
58842;SDS011;44614;54.356;10.100;2024-02-14T12:54:01;7.60;;;3.80;;
58842;SDS011;44614;54.356;10.100;2024-02-14T12:56:26;8.45;;;3.97;;
58842;SDS011;44614;54.356;10.100;2024-02-14T12:58:52;7.30;;;3.83;;
58842;SDS011;44614;54.356;10.100;2024-02-14T13:01:18;8.40;;;4.07;;
58842;SDS011;44614;54.356;10.100;2024-02-14T13:03:43;10.48;;;3.80;;
58842;SDS011;44614;54.356;10.100;2024-02-14T13:06:10;11.50;;;4.20;;
58842;SDS011;44614;54.356;10.100;2024-02-14T13:08:36;9.97;;;4.10;;
58842;SDS011;44614;54.356;10.100;2024-02-14T13:11:03;5.15;;;2.53;;
58842;SDS011;44614;54.356;10.100;2024-02-14T13:13:29;6.17;;;3.53;;
58842;SDS011;44614;54.356;10.100;2024-02-14T13:15:55;6.83;;;3.80;;
58842;SDS011;44614;54.356;10.100;2024-02-14T13:18:20;9.10;;;3.87;;
58842;SDS011;44614;54.356;10.100;2024-02-14T13:20:46;5.97;;;3.00;;
58842;SDS011;44614;54.356;10.100;2024-02-14T13:23:11;6.07;;;3.13;;
58842;SDS011;44614;54.356;10.100;2024-02-14T13:25:36;9.80;;;3.38;;
58842;SDS011;44614;54.356;10.100;2024-02-14T13:28:03;4.37;;;2.00;;
58842;SDS011;44614;54.356;10.100;2024-02-14T13:30:29;5.22;;;2.42;;
58842;SDS011;44614;54.356;10.100;2024-02-14T13:32:55;6.70;;;2.80;;
58842;SDS011;44614;54.356;10.100;2024-02-14T13:35:21;5.53;;;2.50;;
58842;SDS011;44614;54.356;10.100;2024-02-14T13:37:46;6.13;;;2.63;;
58842;SDS011;44614;54.356;10.100;2024-02-14T13:40:12;6.10;;;1.73;;
58842;SDS011;44614;54.356;10.100;2024-02-14T13:42:38;5.23;;;1.93;;
58842;SDS011;44614;54.356;10.100;2024-02-14T13:45:06;4.00;;;1.87;;
58842;SDS011;44614;54.356;10.100;2024-02-14T13:47:36;7.15;;;2.38;;
58842;SDS011;44614;54.356;10.100;2024-02-14T13:50:07;6.03;;;2.08;;
58842;SDS011;44614;54.356;10.100;2024-02-14T13:52:33;5.68;;;2.33;;
58842;SDS011;44614;54.356;10.100;2024-02-14T13:55:00;4.32;;;2.25;;
58842;SDS011;44614;54.356;10.100;2024-02-14T13:57:27;5.15;;;1.95;;
58842;SDS011;44614;54.356;10.100;2024-02-14T14:02:20;4.13;;;1.52;;
58842;SDS011;44614;54.356;10.100;2024-02-14T14:04:45;5.13;;;2.20;;
58842;SDS011;44614;54.356;10.100;2024-02-14T14:07:11;4.80;;;2.47;;
58842;SDS011;44614;54.356;10.100;2024-02-14T14:09:36;7.70;;;3.20;;
58842;SDS011;44614;54.356;10.100;2024-02-14T14:12:02;6.35;;;2.45;;
58842;SDS011;44614;54.356;10.100;2024-02-14T14:14:28;5.30;;;2.63;;
58842;SDS011;44614;54.356;10.100;2024-02-14T14:16:54;5.55;;;2.75;;
58842;SDS011;44614;54.356;10.100;2024-02-14T14:19:19;5.60;;;2.60;;
58842;SDS011;44614;54.356;10.100;2024-02-14T14:21:45;6.43;;;2.73;;
58842;SDS011;44614;54.356;10.100;2024-02-14T14:24:10;5.22;;;2.83;;
58842;SDS011;44614;54.356;10.100;2024-02-14T14:26:36;4.13;;;1.95;;
58842;SDS011;44614;54.356;10.100;2024-02-14T14:29:02;4.97;;;1.65;;
58842;SDS011;44614;54.356;10.100;2024-02-14T14:31:28;5.03;;;2.45;;
58842;SDS011;44614;54.356;10.100;2024-02-14T14:33:53;4.95;;;2.35;;
58842;SDS011;44614;54.356;10.100;2024-02-14T14:36:19;6.17;;;2.77;;
58842;SDS011;44614;54.356;10.100;2024-02-14T14:38:44;3.03;;;2.03;;
58842;SDS011;44614;54.356;10.100;2024-02-14T14:41:10;5.78;;;2.22;;
58842;SDS011;44614;54.356;10.100;2024-02-14T14:43:36;3.97;;;2.27;;
58842;SDS011;44614;54.356;10.100;2024-02-14T14:46:01;4.55;;;1.60;;
58842;SDS011;44614;54.356;10.100;2024-02-14T14:48:26;3.70;;;1.85;;
58842;SDS011;44614;54.356;10.100;2024-02-14T14:50:52;6.57;;;2.58;;
58842;SDS011;44614;54.356;10.100;2024-02-14T14:53:18;6.40;;;2.33;;